sensor_id;sensor_type;location;lat;lon;timestamp;P1;durP1;ratioP1;P2;durP2;ratioP2
65706;SDS011;52423;43.512;5.220;2024-01-16T00:00:51;11.93;;;8.80;;
65706;SDS011;52423;43.512;5.220;2024-01-16T00:03:17;9.77;;;7.03;;
65706;SDS011;52423;43.512;5.220;2024-01-16T00:05:42;9.02;;;6.80;;
65706;SDS011;52423;43.512;5.220;2024-01-16T00:08:08;8.40;;;6.70;;
65706;SDS011;52423;43.512;5.220;2024-01-16T00:10:33;12.60;;;7.90;;
65706;SDS011;52423;43.512;5.220;2024-01-16T00:12:58;9.23;;;6.35;;
65706;SDS011;52423;43.512;5.220;2024-01-16T00:15:24;8.43;;;5.63;;
65706;SDS011;52423;43.512;5.220;2024-01-16T00:17:49;8.77;;;6.03;;
65706;SDS011;52423;43.512;5.220;2024-01-16T00:20:16;6.22;;;4.40;;
65706;SDS011;52423;43.512;5.220;2024-01-16T00:22:41;4.63;;;3.72;;
65706;SDS011;52423;43.512;5.220;2024-01-16T00:25:07;4.78;;;4.28;;
65706;SDS011;52423;43.512;5.220;2024-01-16T00:27:32;5.63;;;5.13;;
65706;SDS011;52423;43.512;5.220;2024-01-16T00:29:58;5.20;;;3.42;;
65706;SDS011;52423;43.512;5.220;2024-01-16T00:32:23;4.72;;;4.18;;
65706;SDS011;52423;43.512;5.220;2024-01-16T00:34:49;3.67;;;3.28;;
65706;SDS011;52423;43.512;5.220;2024-01-16T00:37:14;3.50;;;2.83;;
65706;SDS011;52423;43.512;5.220;2024-01-16T00:39:39;3.80;;;2.33;;
65706;SDS011;52423;43.512;5.220;2024-01-16T00:42:05;3.85;;;2.75;;
65706;SDS011;52423;43.512;5.220;2024-01-16T00:44:31;3.45;;;2.10;;
65706;SDS011;52423;43.512;5.220;2024-01-16T00:46:56;3.83;;;3.03;;
65706;SDS011;52423;43.512;5.220;2024-01-16T00:49:22;2.55;;;1.92;;
65706;SDS011;52423;43.512;5.220;2024-01-16T00:51:47;4.03;;;1.48;;
65706;SDS011;52423;43.512;5.220;2024-01-16T00:54:13;2.33;;;1.85;;
65706;SDS011;52423;43.512;5.220;2024-01-16T00:56:38;3.22;;;1.75;;
65706;SDS011;52423;43.512;5.220;2024-01-16T00:59:03;2.30;;;1.40;;
65706;SDS011;52423;43.512;5.220;2024-01-16T01:01:29;1.98;;;1.65;;
65706;SDS011;52423;43.512;5.220;2024-01-16T01:03:54;3.00;;;2.65;;
65706;SDS011;52423;43.512;5.220;2024-01-16T01:06:20;2.72;;;2.53;;
65706;SDS011;52423;43.512;5.220;2024-01-16T01:08:45;2.42;;;1.67;;
65706;SDS011;52423;43.512;5.220;2024-01-16T01:11:11;2.13;;;1.70;;
65706;SDS011;52423;43.512;5.220;2024-01-16T01:13:37;2.13;;;1.88;;
65706;SDS011;52423;43.512;5.220;2024-01-16T01:16:02;2.10;;;1.90;;
65706;SDS011;52423;43.512;5.220;2024-01-16T01:18:28;2.65;;;2.17;;
65706;SDS011;52423;43.512;5.220;2024-01-16T01:20:53;2.13;;;1.92;;
65706;SDS011;52423;43.512;5.220;2024-01-16T01:23:19;2.13;;;1.20;;
65706;SDS011;52423;43.512;5.220;2024-01-16T01:25:44;2.67;;;1.92;;
65706;SDS011;52423;43.512;5.220;2024-01-16T01:28:10;2.50;;;1.70;;
65706;SDS011;52423;43.512;5.220;2024-01-16T01:30:36;4.07;;;1.73;;
65706;SDS011;52423;43.512;5.220;2024-01-16T01:33:01;2.22;;;1.95;;
65706;SDS011;52423;43.512;5.220;2024-01-16T01:35:27;1.75;;;1.65;;
65706;SDS011;52423;43.512;5.220;2024-01-16T01:37:52;1.42;;;1.05;;
65706;SDS011;52423;43.512;5.220;2024-01-16T01:40:18;1.33;;;0.88;;
65706;SDS011;52423;43.512;5.220;2024-01-16T01:42:43;1.63;;;1.45;;
65706;SDS011;52423;43.512;5.220;2024-01-16T01:45:09;1.15;;;0.77;;
65706;SDS011;52423;43.512;5.220;2024-01-16T01:47:36;1.58;;;1.25;;
65706;SDS011;52423;43.512;5.220;2024-01-16T01:50:02;1.02;;;0.88;;
65706;SDS011;52423;43.512;5.220;2024-01-16T01:52:30;1.75;;;1.65;;
65706;SDS011;52423;43.512;5.220;2024-01-16T01:54:56;1.63;;;1.52;;
65706;SDS011;52423;43.512;5.220;2024-01-16T01:57:23;0.90;;;0.85;;
65706;SDS011;52423;43.512;5.220;2024-01-16T01:59:48;1.35;;;1.23;;
65706;SDS011;52423;43.512;5.220;2024-01-16T02:02:14;1.20;;;1.05;;
65706;SDS011;52423;43.512;5.220;2024-01-16T02:04:40;1.25;;;1.17;;
65706;SDS011;52423;43.512;5.220;2024-01-16T02:07:07;1.10;;;0.57;;
65706;SDS011;52423;43.512;5.220;2024-01-16T02:09:32;1.25;;;1.08;;
65706;SDS011;52423;43.512;5.220;2024-01-16T02:11:58;2.25;;;0.88;;
65706;SDS011;52423;43.512;5.220;2024-01-16T02:14:23;1.10;;;0.60;;
65706;SDS011;52423;43.512;5.220;2024-01-16T02:16:49;0.45;;;0.40;;
65706;SDS011;52423;43.512;5.220;2024-01-16T02:19:15;1.63;;;1.25;;
65706;SDS011;52423;43.512;5.220;2024-01-16T02:21:44;0.75;;;0.60;;
65706;SDS011;52423;43.512;5.220;2024-01-16T02:24:15;1.63;;;1.17;;
65706;SDS011;52423;43.512;5.220;2024-01-16T02:26:40;1.02;;;0.60;;
65706;SDS011;52423;43.512;5.220;2024-01-16T02:29:06;2.22;;;0.70;;
65706;SDS011;52423;43.512;5.220;2024-01-16T02:31:32;1.13;;;1.02;;
65706;SDS011;52423;43.512;5.220;2024-01-16T02:33:58;0.95;;;0.95;;
65706;SDS011;52423;43.512;5.220;2024-01-16T02:36:24;1.38;;;0.80;;
65706;SDS011;52423;43.512;5.220;2024-01-16T02:38:50;2.13;;;0.70;;
65706;SDS011;52423;43.512;5.220;2024-01-16T02:41:16;1.42;;;1.13;;
65706;SDS011;52423;43.512;5.220;2024-01-16T02:43:42;1.30;;;0.90;;
65706;SDS011;52423;43.512;5.220;2024-01-16T02:46:08;3.13;;;1.85;;
65706;SDS011;52423;43.512;5.220;2024-01-16T02:48:36;2.63;;;2.42;;
65706;SDS011;52423;43.512;5.220;2024-01-16T02:51:02;3.55;;;2.45;;
65706;SDS011;52423;43.512;5.220;2024-01-16T02:53:28;2.85;;;2.03;;
65706;SDS011;52423;43.512;5.220;2024-01-16T02:55:54;7.05;;;3.58;;
65706;SDS011;52423;43.512;5.220;2024-01-16T02:58:20;6.57;;;3.22;;
65706;SDS011;52423;43.512;5.220;2024-01-16T03:00:46;5.35;;;2.83;;
65706;SDS011;52423;43.512;5.220;2024-01-16T03:03:12;4.85;;;3.08;;
65706;SDS011;52423;43.512;5.220;2024-01-16T03:05:37;4.57;;;3.58;;
65706;SDS011;52423;43.512;5.220;2024-01-16T03:08:03;5.30;;;3.60;;
65706;SDS011;52423;43.512;5.220;2024-01-16T03:10:28;4.95;;;4.25;;
65706;SDS011;52423;43.512;5.220;2024-01-16T03:12:54;4.75;;;3.88;;
65706;SDS011;52423;43.512;5.220;2024-01-16T03:15:19;5.10;;;4.22;;
65706;SDS011;52423;43.512;5.220;2024-01-16T03:17:45;4.80;;;3.30;;
65706;SDS011;52423;43.512;5.220;2024-01-16T03:20:11;5.13;;;4.63;;
65706;SDS011;52423;43.512;5.220;2024-01-16T03:22:36;6.30;;;4.72;;
65706;SDS011;52423;43.512;5.220;2024-01-16T03:25:02;5.25;;;3.35;;
65706;SDS011;52423;43.512;5.220;2024-01-16T03:27:27;5.15;;;4.57;;
65706;SDS011;52423;43.512;5.220;2024-01-16T03:29:53;5.55;;;4.03;;
65706;SDS011;52423;43.512;5.220;2024-01-16T03:32:18;4.43;;;3.20;;
65706;SDS011;52423;43.512;5.220;2024-01-16T03:34:44;4.50;;;3.25;;
65706;SDS011;52423;43.512;5.220;2024-01-16T03:37:09;6.00;;;4.00;;
65706;SDS011;52423;43.512;5.220;2024-01-16T03:39:35;4.68;;;3.60;;
65706;SDS011;52423;43.512;5.220;2024-01-16T03:42:00;4.65;;;4.05;;
65706;SDS011;52423;43.512;5.220;2024-01-16T03:44:25;7.78;;;5.20;;
65706;SDS011;52423;43.512;5.220;2024-01-16T03:46:51;6.28;;;4.97;;
65706;SDS011;52423;43.512;5.220;2024-01-16T03:49:16;7.35;;;6.28;;
65706;SDS011;52423;43.512;5.220;2024-01-16T03:51:42;9.15;;;5.47;;
65706;SDS011;52423;43.512;5.220;2024-01-16T03:54:11;7.25;;;4.75;;
65706;SDS011;52423;43.512;5.220;2024-01-16T03:56:38;5.40;;;3.90;;
65706;SDS011;52423;43.512;5.220;2024-01-16T03:59:04;6.85;;;3.63;;
65706;SDS011;52423;43.512;5.220;2024-01-16T04:01:30;4.32;;;3.17;;
65706;SDS011;52423;43.512;5.220;2024-01-16T04:06:23;5.40;;;4.57;;
65706;SDS011;52423;43.512;5.220;2024-01-16T04:08:49;7.40;;;5.82;;
65706;SDS011;52423;43.512;5.220;2024-01-16T04:11:14;7.07;;;4.22;;
65706;SDS011;52423;43.512;5.220;2024-01-16T04:13:40;5.60;;;3.85;;
65706;SDS011;52423;43.512;5.220;2024-01-16T04:16:06;6.38;;;3.95;;
65706;SDS011;52423;43.512;5.220;2024-01-16T04:18:38;5.90;;;4.07;;
65706;SDS011;52423;43.512;5.220;2024-01-16T04:21:05;4.63;;;4.22;;
65706;SDS011;52423;43.512;5.220;2024-01-16T04:23:31;6.38;;;5.20;;
65706;SDS011;52423;43.512;5.220;2024-01-16T04:25:57;6.28;;;4.80;;
65706;SDS011;52423;43.512;5.220;2024-01-16T04:28:23;6.00;;;4.32;;
65706;SDS011;52423;43.512;5.220;2024-01-16T04:30:49;4.97;;;3.88;;
65706;SDS011;52423;43.512;5.220;2024-01-16T04:33:14;3.90;;;3.20;;
65706;SDS011;52423;43.512;5.220;2024-01-16T04:35:39;4.63;;;3.90;;
65706;SDS011;52423;43.512;5.220;2024-01-16T04:38:05;5.40;;;3.53;;
65706;SDS011;52423;43.512;5.220;2024-01-16T04:40:30;5.45;;;4.30;;
65706;SDS011;52423;43.512;5.220;2024-01-16T04:42:56;5.53;;;5.00;;
65706;SDS011;52423;43.512;5.220;2024-01-16T04:45:21;4.25;;;2.95;;
65706;SDS011;52423;43.512;5.220;2024-01-16T04:47:46;4.07;;;3.53;;
65706;SDS011;52423;43.512;5.220;2024-01-16T04:50:12;5.88;;;3.45;;
65706;SDS011;52423;43.512;5.220;2024-01-16T04:52:37;6.25;;;4.22;;
65706;SDS011;52423;43.512;5.220;2024-01-16T04:55:03;5.68;;;5.18;;
65706;SDS011;52423;43.512;5.220;2024-01-16T04:57:29;12.48;;;7.40;;
65706;SDS011;52423;43.512;5.220;2024-01-16T04:59:54;8.30;;;5.80;;
65706;SDS011;52423;43.512;5.220;2024-01-16T05:02:19;12.05;;;6.32;;
65706;SDS011;52423;43.512;5.220;2024-01-16T05:04:45;10.32;;;5.20;;
65706;SDS011;52423;43.512;5.220;2024-01-16T05:09:39;8.60;;;4.75;;
65706;SDS011;52423;43.512;5.220;2024-01-16T05:12:05;9.05;;;5.50;;
65706;SDS011;52423;43.512;5.220;2024-01-16T05:14:30;7.68;;;5.65;;
65706;SDS011;52423;43.512;5.220;2024-01-16T05:16:55;9.15;;;6.28;;
65706;SDS011;52423;43.512;5.220;2024-01-16T05:19:21;9.75;;;7.22;;
65706;SDS011;52423;43.512;5.220;2024-01-16T05:21:46;10.65;;;7.07;;
65706;SDS011;52423;43.512;5.220;2024-01-16T05:24:12;9.20;;;6.70;;
65706;SDS011;52423;43.512;5.220;2024-01-16T05:26:37;9.00;;;6.63;;
65706;SDS011;52423;43.512;5.220;2024-01-16T05:29:02;11.73;;;8.52;;
65706;SDS011;52423;43.512;5.220;2024-01-16T05:31:28;11.48;;;7.50;;
65706;SDS011;52423;43.512;5.220;2024-01-16T05:33:53;9.32;;;5.68;;
65706;SDS011;52423;43.512;5.220;2024-01-16T05:36:19;7.88;;;4.93;;
65706;SDS011;52423;43.512;5.220;2024-01-16T05:38:44;6.82;;;4.40;;
65706;SDS011;52423;43.512;5.220;2024-01-16T05:41:09;7.13;;;4.72;;
65706;SDS011;52423;43.512;5.220;2024-01-16T05:43:35;5.90;;;4.72;;
65706;SDS011;52423;43.512;5.220;2024-01-16T05:46:00;7.03;;;4.60;;
65706;SDS011;52423;43.512;5.220;2024-01-16T05:48:26;5.63;;;4.90;;
65706;SDS011;52423;43.512;5.220;2024-01-16T05:50:51;9.43;;;6.72;;
65706;SDS011;52423;43.512;5.220;2024-01-16T05:53:16;8.00;;;7.03;;
65706;SDS011;52423;43.512;5.220;2024-01-16T05:55:42;7.20;;;6.03;;
65706;SDS011;52423;43.512;5.220;2024-01-16T05:58:07;6.97;;;6.38;;
65706;SDS011;52423;43.512;5.220;2024-01-16T06:00:33;5.85;;;4.00;;
65706;SDS011;52423;43.512;5.220;2024-01-16T06:02:59;6.55;;;5.07;;
65706;SDS011;52423;43.512;5.220;2024-01-16T06:05:24;6.53;;;5.43;;
65706;SDS011;52423;43.512;5.220;2024-01-16T06:07:50;8.95;;;7.85;;
65706;SDS011;52423;43.512;5.220;2024-01-16T06:10:15;8.32;;;6.07;;
65706;SDS011;52423;43.512;5.220;2024-01-16T06:12:41;6.72;;;3.83;;
65706;SDS011;52423;43.512;5.220;2024-01-16T06:15:07;6.53;;;4.70;;
65706;SDS011;52423;43.512;5.220;2024-01-16T06:17:33;8.80;;;5.15;;
65706;SDS011;52423;43.512;5.220;2024-01-16T06:19:59;8.85;;;7.38;;
65706;SDS011;52423;43.512;5.220;2024-01-16T06:22:24;14.30;;;9.38;;
65706;SDS011;52423;43.512;5.220;2024-01-16T06:24:49;6.10;;;4.50;;
65706;SDS011;52423;43.512;5.220;2024-01-16T06:27:15;4.88;;;3.03;;
65706;SDS011;52423;43.512;5.220;2024-01-16T06:29:47;11.93;;;10.70;;
65706;SDS011;52423;43.512;5.220;2024-01-16T06:32:13;13.27;;;12.27;;
65706;SDS011;52423;43.512;5.220;2024-01-16T06:34:39;9.38;;;8.57;;
65706;SDS011;52423;43.512;5.220;2024-01-16T06:37:04;7.30;;;6.30;;
65706;SDS011;52423;43.512;5.220;2024-01-16T06:39:30;5.97;;;5.38;;
65706;SDS011;52423;43.512;5.220;2024-01-16T06:41:56;4.70;;;3.78;;
65706;SDS011;52423;43.512;5.220;2024-01-16T06:44:21;8.98;;;4.85;;
65706;SDS011;52423;43.512;5.220;2024-01-16T06:46:46;17.70;;;8.55;;
65706;SDS011;52423;43.512;5.220;2024-01-16T06:49:12;13.93;;;6.03;;
65706;SDS011;52423;43.512;5.220;2024-01-16T06:51:37;15.80;;;8.02;;
65706;SDS011;52423;43.512;5.220;2024-01-16T06:54:03;18.13;;;7.55;;
65706;SDS011;52423;43.512;5.220;2024-01-16T06:56:29;18.85;;;8.23;;
65706;SDS011;52423;43.512;5.220;2024-01-16T06:58:54;24.48;;;12.80;;
65706;SDS011;52423;43.512;5.220;2024-01-16T07:01:20;21.23;;;11.00;;
65706;SDS011;52423;43.512;5.220;2024-01-16T07:03:46;16.85;;;9.65;;
65706;SDS011;52423;43.512;5.220;2024-01-16T07:06:11;22.95;;;9.95;;
65706;SDS011;52423;43.512;5.220;2024-01-16T07:08:37;23.10;;;12.45;;
65706;SDS011;52423;43.512;5.220;2024-01-16T07:11:03;20.33;;;9.30;;
65706;SDS011;52423;43.512;5.220;2024-01-16T07:13:32;15.18;;;8.63;;
65706;SDS011;52423;43.512;5.220;2024-01-16T07:15:58;14.10;;;9.18;;
65706;SDS011;52423;43.512;5.220;2024-01-16T07:18:23;19.58;;;9.70;;
65706;SDS011;52423;43.512;5.220;2024-01-16T07:20:49;12.10;;;7.72;;
65706;SDS011;52423;43.512;5.220;2024-01-16T07:23:14;10.52;;;8.40;;
65706;SDS011;52423;43.512;5.220;2024-01-16T07:25:40;12.10;;;6.95;;
65706;SDS011;52423;43.512;5.220;2024-01-16T07:28:05;12.00;;;6.78;;
65706;SDS011;52423;43.512;5.220;2024-01-16T07:30:31;14.90;;;8.20;;
65706;SDS011;52423;43.512;5.220;2024-01-16T07:32:56;13.20;;;7.50;;
65706;SDS011;52423;43.512;5.220;2024-01-16T07:35:21;15.95;;;8.25;;
65706;SDS011;52423;43.512;5.220;2024-01-16T07:37:47;17.25;;;10.82;;
65706;SDS011;52423;43.512;5.220;2024-01-16T07:40:12;14.90;;;9.73;;
65706;SDS011;52423;43.512;5.220;2024-01-16T07:42:38;14.57;;;11.20;;
65706;SDS011;52423;43.512;5.220;2024-01-16T07:45:03;15.75;;;10.15;;
65706;SDS011;52423;43.512;5.220;2024-01-16T07:47:30;20.65;;;13.18;;
65706;SDS011;52423;43.512;5.220;2024-01-16T07:49:58;16.77;;;11.05;;
65706;SDS011;52423;43.512;5.220;2024-01-16T07:52:25;11.27;;;7.38;;
65706;SDS011;52423;43.512;5.220;2024-01-16T07:54:50;11.23;;;7.53;;
65706;SDS011;52423;43.512;5.220;2024-01-16T07:57:15;10.98;;;6.63;;
65706;SDS011;52423;43.512;5.220;2024-01-16T07:59:42;11.25;;;6.88;;
65706;SDS011;52423;43.512;5.220;2024-01-16T08:02:07;10.20;;;7.38;;
65706;SDS011;52423;43.512;5.220;2024-01-16T08:04:34;11.48;;;6.75;;
65706;SDS011;52423;43.512;5.220;2024-01-16T08:06:59;10.85;;;7.53;;
65706;SDS011;52423;43.512;5.220;2024-01-16T08:09:25;12.93;;;8.38;;
65706;SDS011;52423;43.512;5.220;2024-01-16T08:11:50;11.60;;;8.18;;
65706;SDS011;52423;43.512;5.220;2024-01-16T08:14:16;15.60;;;9.35;;
65706;SDS011;52423;43.512;5.220;2024-01-16T08:16:42;14.38;;;10.05;;
65706;SDS011;52423;43.512;5.220;2024-01-16T08:19:07;12.43;;;7.47;;
65706;SDS011;52423;43.512;5.220;2024-01-16T08:21:33;11.88;;;8.05;;
65706;SDS011;52423;43.512;5.220;2024-01-16T08:23:58;14.25;;;9.65;;
65706;SDS011;52423;43.512;5.220;2024-01-16T08:26:24;12.02;;;8.25;;
65706;SDS011;52423;43.512;5.220;2024-01-16T08:28:49;12.85;;;9.93;;
65706;SDS011;52423;43.512;5.220;2024-01-16T08:31:18;12.48;;;10.95;;
65706;SDS011;52423;43.512;5.220;2024-01-16T08:33:44;17.38;;;11.73;;
65706;SDS011;52423;43.512;5.220;2024-01-16T08:36:10;16.00;;;11.50;;
65706;SDS011;52423;43.512;5.220;2024-01-16T08:38:36;13.70;;;10.10;;
65706;SDS011;52423;43.512;5.220;2024-01-16T08:41:01;11.88;;;9.55;;
65706;SDS011;52423;43.512;5.220;2024-01-16T08:43:31;17.85;;;13.27;;
65706;SDS011;52423;43.512;5.220;2024-01-16T08:45:56;13.30;;;11.20;;
65706;SDS011;52423;43.512;5.220;2024-01-16T08:48:22;14.80;;;10.35;;
65706;SDS011;52423;43.512;5.220;2024-01-16T08:50:47;13.25;;;9.23;;
65706;SDS011;52423;43.512;5.220;2024-01-16T08:53:12;13.32;;;9.43;;
65706;SDS011;52423;43.512;5.220;2024-01-16T08:55:38;13.38;;;11.93;;
65706;SDS011;52423;43.512;5.220;2024-01-16T08:58:03;13.45;;;9.75;;
65706;SDS011;52423;43.512;5.220;2024-01-16T09:00:29;15.48;;;12.65;;
65706;SDS011;52423;43.512;5.220;2024-01-16T09:02:54;15.50;;;13.13;;
65706;SDS011;52423;43.512;5.220;2024-01-16T09:05:19;17.25;;;13.13;;
65706;SDS011;52423;43.512;5.220;2024-01-16T09:07:50;12.85;;;11.18;;
65706;SDS011;52423;43.512;5.220;2024-01-16T09:10:15;12.80;;;8.73;;
65706;SDS011;52423;43.512;5.220;2024-01-16T09:12:42;11.98;;;9.32;;
65706;SDS011;52423;43.512;5.220;2024-01-16T09:15:07;10.05;;;9.05;;
65706;SDS011;52423;43.512;5.220;2024-01-16T09:17:33;9.90;;;8.57;;
65706;SDS011;52423;43.512;5.220;2024-01-16T09:19:59;9.25;;;7.90;;
65706;SDS011;52423;43.512;5.220;2024-01-16T09:22:24;12.18;;;9.88;;
65706;SDS011;52423;43.512;5.220;2024-01-16T09:24:49;10.93;;;8.23;;
65706;SDS011;52423;43.512;5.220;2024-01-16T09:27:15;9.40;;;8.38;;
65706;SDS011;52423;43.512;5.220;2024-01-16T09:29:41;9.55;;;7.93;;
65706;SDS011;52423;43.512;5.220;2024-01-16T09:32:07;13.73;;;10.20;;
65706;SDS011;52423;43.512;5.220;2024-01-16T09:34:32;13.27;;;11.77;;
65706;SDS011;52423;43.512;5.220;2024-01-16T09:36:58;14.93;;;10.45;;
65706;SDS011;52423;43.512;5.220;2024-01-16T09:39:26;16.75;;;12.32;;
65706;SDS011;52423;43.512;5.220;2024-01-16T09:41:51;18.42;;;12.38;;
65706;SDS011;52423;43.512;5.220;2024-01-16T09:44:17;15.48;;;13.32;;
65706;SDS011;52423;43.512;5.220;2024-01-16T09:46:43;19.80;;;15.32;;
65706;SDS011;52423;43.512;5.220;2024-01-16T09:49:11;15.18;;;11.75;;
65706;SDS011;52423;43.512;5.220;2024-01-16T09:51:37;21.27;;;14.98;;
65706;SDS011;52423;43.512;5.220;2024-01-16T09:54:02;19.73;;;15.43;;
65706;SDS011;52423;43.512;5.220;2024-01-16T09:56:33;13.10;;;10.63;;
65706;SDS011;52423;43.512;5.220;2024-01-16T09:59:05;15.57;;;11.35;;
65706;SDS011;52423;43.512;5.220;2024-01-16T10:01:31;12.38;;;10.30;;
65706;SDS011;52423;43.512;5.220;2024-01-16T10:03:58;10.18;;;7.90;;
65706;SDS011;52423;43.512;5.220;2024-01-16T10:06:24;9.38;;;7.88;;
65706;SDS011;52423;43.512;5.220;2024-01-16T10:08:52;9.15;;;6.95;;
65706;SDS011;52423;43.512;5.220;2024-01-16T10:11:17;13.27;;;9.98;;
65706;SDS011;52423;43.512;5.220;2024-01-16T10:13:44;17.50;;;11.02;;
65706;SDS011;52423;43.512;5.220;2024-01-16T10:16:09;13.30;;;9.07;;
65706;SDS011;52423;43.512;5.220;2024-01-16T10:18:35;9.85;;;7.85;;
65706;SDS011;52423;43.512;5.220;2024-01-16T10:21:02;11.30;;;8.48;;
65706;SDS011;52423;43.512;5.220;2024-01-16T10:23:28;9.85;;;6.30;;
65706;SDS011;52423;43.512;5.220;2024-01-16T10:26:06;11.30;;;9.13;;
65706;SDS011;52423;43.512;5.220;2024-01-16T10:28:32;9.93;;;8.85;;
65706;SDS011;52423;43.512;5.220;2024-01-16T10:31:03;10.57;;;9.25;;
65706;SDS011;52423;43.512;5.220;2024-01-16T10:33:33;12.48;;;11.23;;
65706;SDS011;52423;43.512;5.220;2024-01-16T10:36:16;8.82;;;7.97;;
65706;SDS011;52423;43.512;5.220;2024-01-16T10:38:45;10.90;;;7.78;;
65706;SDS011;52423;43.512;5.220;2024-01-16T10:48:38;9.30;;;6.97;;
65706;SDS011;52423;43.512;5.220;2024-01-16T10:51:09;7.80;;;5.85;;
65706;SDS011;52423;43.512;5.220;2024-01-16T10:53:37;8.93;;;6.00;;
65706;SDS011;52423;43.512;5.220;2024-01-16T10:56:05;9.02;;;7.00;;
65706;SDS011;52423;43.512;5.220;2024-01-16T10:58:39;7.80;;;5.85;;
65706;SDS011;52423;43.512;5.220;2024-01-16T11:01:06;10.90;;;7.35;;
65706;SDS011;52423;43.512;5.220;2024-01-16T11:03:49;6.45;;;5.05;;
65706;SDS011;52423;43.512;5.220;2024-01-16T11:06:16;7.22;;;5.25;;
65706;SDS011;52423;43.512;5.220;2024-01-16T11:08:42;6.13;;;4.95;;
65706;SDS011;52423;43.512;5.220;2024-01-16T11:11:12;6.38;;;4.88;;
65706;SDS011;52423;43.512;5.220;2024-01-16T11:13:39;6.90;;;5.20;;
65706;SDS011;52423;43.512;5.220;2024-01-16T11:16:06;5.93;;;4.47;;
65706;SDS011;52423;43.512;5.220;2024-01-16T11:18:35;4.38;;;3.80;;
65706;SDS011;52423;43.512;5.220;2024-01-16T11:21:01;7.43;;;5.68;;
65706;SDS011;52423;43.512;5.220;2024-01-16T11:23:29;7.18;;;5.38;;
65706;SDS011;52423;43.512;5.220;2024-01-16T11:25:54;7.28;;;6.25;;
65706;SDS011;52423;43.512;5.220;2024-01-16T11:28:20;7.25;;;6.00;;
65706;SDS011;52423;43.512;5.220;2024-01-16T11:30:51;8.00;;;5.88;;
65706;SDS011;52423;43.512;5.220;2024-01-16T11:35:57;6.95;;;5.22;;
65706;SDS011;52423;43.512;5.220;2024-01-16T11:38:23;11.00;;;7.30;;
65706;SDS011;52423;43.512;5.220;2024-01-16T11:40:52;8.45;;;7.10;;
65706;SDS011;52423;43.512;5.220;2024-01-16T11:46:05;8.95;;;6.35;;
65706;SDS011;52423;43.512;5.220;2024-01-16T11:48:31;5.80;;;5.00;;
65706;SDS011;52423;43.512;5.220;2024-01-16T11:50:56;7.38;;;5.50;;
65706;SDS011;52423;43.512;5.220;2024-01-16T11:53:31;8.82;;;6.22;;
65706;SDS011;52423;43.512;5.220;2024-01-16T12:04:03;32.78;;;29.77;;
65706;SDS011;52423;43.512;5.220;2024-01-16T12:06:30;26.63;;;24.05;;
65706;SDS011;52423;43.512;5.220;2024-01-16T12:09:10;24.52;;;22.45;;
65706;SDS011;52423;43.512;5.220;2024-01-16T12:11:42;19.48;;;17.55;;
65706;SDS011;52423;43.512;5.220;2024-01-16T12:14:14;20.40;;;18.60;;
65706;SDS011;52423;43.512;5.220;2024-01-16T12:16:39;18.35;;;16.48;;
65706;SDS011;52423;43.512;5.220;2024-01-16T12:19:05;16.65;;;14.93;;
65706;SDS011;52423;43.512;5.220;2024-01-16T12:21:32;13.15;;;11.75;;
65706;SDS011;52423;43.512;5.220;2024-01-16T12:23:59;10.48;;;9.23;;
65706;SDS011;52423;43.512;5.220;2024-01-16T12:26:24;11.57;;;9.85;;
65706;SDS011;52423;43.512;5.220;2024-01-16T12:28:53;12.05;;;8.10;;
65706;SDS011;52423;43.512;5.220;2024-01-16T12:31:19;11.43;;;8.43;;
65706;SDS011;52423;43.512;5.220;2024-01-16T12:33:44;9.65;;;8.65;;
65706;SDS011;52423;43.512;5.220;2024-01-16T12:36:09;10.77;;;8.52;;
65706;SDS011;52423;43.512;5.220;2024-01-16T12:38:35;10.45;;;8.15;;
65706;SDS011;52423;43.512;5.220;2024-01-16T12:41:01;12.18;;;8.50;;
65706;SDS011;52423;43.512;5.220;2024-01-16T12:43:31;13.98;;;9.48;;
65706;SDS011;52423;43.512;5.220;2024-01-16T12:45:57;13.27;;;10.00;;
65706;SDS011;52423;43.512;5.220;2024-01-16T12:48:23;10.48;;;7.97;;
65706;SDS011;52423;43.512;5.220;2024-01-16T12:50:50;12.73;;;9.07;;
65706;SDS011;52423;43.512;5.220;2024-01-16T12:53:15;11.65;;;9.05;;
65706;SDS011;52423;43.512;5.220;2024-01-16T12:55:44;11.60;;;9.55;;
65706;SDS011;52423;43.512;5.220;2024-01-16T13:00:45;12.63;;;9.65;;
65706;SDS011;52423;43.512;5.220;2024-01-16T13:03:24;10.52;;;8.43;;
65706;SDS011;52423;43.512;5.220;2024-01-16T13:05:55;11.48;;;9.68;;
65706;SDS011;52423;43.512;5.220;2024-01-16T13:08:23;13.25;;;9.05;;
65706;SDS011;52423;43.512;5.220;2024-01-16T13:11:04;10.55;;;9.52;;
65706;SDS011;52423;43.512;5.220;2024-01-16T13:13:33;13.23;;;8.52;;
65706;SDS011;52423;43.512;5.220;2024-01-16T13:16:00;10.13;;;9.13;;
65706;SDS011;52423;43.512;5.220;2024-01-16T13:18:27;10.85;;;8.85;;
65706;SDS011;52423;43.512;5.220;2024-01-16T13:20:54;9.93;;;7.93;;
65706;SDS011;52423;43.512;5.220;2024-01-16T13:23:21;8.57;;;6.88;;
65706;SDS011;52423;43.512;5.220;2024-01-16T13:25:47;11.55;;;7.85;;
65706;SDS011;52423;43.512;5.220;2024-01-16T13:28:17;12.20;;;9.20;;
65706;SDS011;52423;43.512;5.220;2024-01-16T13:30:43;10.95;;;9.50;;
65706;SDS011;52423;43.512;5.220;2024-01-16T13:33:10;10.82;;;7.18;;
65706;SDS011;52423;43.512;5.220;2024-01-16T13:35:37;10.48;;;7.97;;
65706;SDS011;52423;43.512;5.220;2024-01-16T13:38:05;9.32;;;6.93;;
65706;SDS011;52423;43.512;5.220;2024-01-16T13:40:31;9.65;;;7.88;;
65706;SDS011;52423;43.512;5.220;2024-01-16T13:42:57;8.85;;;7.95;;
65706;SDS011;52423;43.512;5.220;2024-01-16T13:45:23;9.10;;;7.00;;
65706;SDS011;52423;43.512;5.220;2024-01-16T13:47:49;9.43;;;6.93;;
65706;SDS011;52423;43.512;5.220;2024-01-16T13:50:14;6.85;;;5.90;;
65706;SDS011;52423;43.512;5.220;2024-01-16T13:52:40;10.55;;;5.95;;
65706;SDS011;52423;43.512;5.220;2024-01-16T13:55:09;7.38;;;5.07;;
65706;SDS011;52423;43.512;5.220;2024-01-16T13:57:35;7.95;;;7.18;;
65706;SDS011;52423;43.512;5.220;2024-01-16T14:00:04;8.10;;;5.93;;
65706;SDS011;52423;43.512;5.220;2024-01-16T14:02:31;8.00;;;6.88;;
65706;SDS011;52423;43.512;5.220;2024-01-16T14:04:57;11.15;;;7.53;;
65706;SDS011;52423;43.512;5.220;2024-01-16T14:07:22;10.93;;;6.68;;
65706;SDS011;52423;43.512;5.220;2024-01-16T14:09:48;10.98;;;8.88;;
65706;SDS011;52423;43.512;5.220;2024-01-16T14:12:13;10.75;;;8.43;;
65706;SDS011;52423;43.512;5.220;2024-01-16T14:14:39;10.30;;;8.20;;
65706;SDS011;52423;43.512;5.220;2024-01-16T14:17:06;10.30;;;8.05;;
65706;SDS011;52423;43.512;5.220;2024-01-16T14:19:34;11.40;;;8.70;;
65706;SDS011;52423;43.512;5.220;2024-01-16T14:22:00;11.48;;;10.07;;
65706;SDS011;52423;43.512;5.220;2024-01-16T14:24:25;13.40;;;8.35;;
65706;SDS011;52423;43.512;5.220;2024-01-16T14:26:51;8.35;;;6.28;;
65706;SDS011;52423;43.512;5.220;2024-01-16T14:29:16;10.45;;;8.82;;
65706;SDS011;52423;43.512;5.220;2024-01-16T14:31:41;12.18;;;8.13;;
65706;SDS011;52423;43.512;5.220;2024-01-16T14:34:11;8.27;;;7.38;;
65706;SDS011;52423;43.512;5.220;2024-01-16T14:36:39;9.63;;;7.10;;
65706;SDS011;52423;43.512;5.220;2024-01-16T14:39:05;11.98;;;8.32;;
65706;SDS011;52423;43.512;5.220;2024-01-16T14:41:30;7.68;;;6.82;;
65706;SDS011;52423;43.512;5.220;2024-01-16T14:43:57;8.50;;;6.93;;
65706;SDS011;52423;43.512;5.220;2024-01-16T14:46:23;14.52;;;9.57;;
65706;SDS011;52423;43.512;5.220;2024-01-16T14:48:48;11.30;;;8.70;;
65706;SDS011;52423;43.512;5.220;2024-01-16T14:51:14;9.70;;;8.00;;
65706;SDS011;52423;43.512;5.220;2024-01-16T14:53:39;12.57;;;10.05;;
65706;SDS011;52423;43.512;5.220;2024-01-16T14:56:05;14.85;;;10.45;;
65706;SDS011;52423;43.512;5.220;2024-01-16T14:58:30;15.23;;;12.15;;
65706;SDS011;52423;43.512;5.220;2024-01-16T15:00:56;14.80;;;12.50;;
65706;SDS011;52423;43.512;5.220;2024-01-16T15:03:22;12.60;;;9.23;;